Time;durP1;ratioP1;P1;durP2;ratioP2;P2;SDS_P1;SDS_P2;PMS_P1;PMS_P2;Temp;Humidity;BMP_temperature;BMP_pressure;BME280_temperature;BME280_humidity;BME280_pressure;Samples;Min_cycle;Max_cycle;Signal;HPM_P1;HPM_P2
2024/04/06 00:01:40;;;;;;;24.83;9.85;;;12.80;99.90;;;18.03;59.69;99365.84;5066752;28;20055;-83
2024/04/06 00:04:09;;;;;;;21.80;9.32;;;12.70;99.90;;;17.99;59.70;99370.59;5060467;28;20173;-81
2024/04/06 00:06:36;;;;;;;19.15;9.20;;;12.70;99.90;;;17.99;59.55;99360.00;5079336;28;20454;-82
2024/04/06 00:09:04;;;;;;;20.98;8.50;;;12.70;99.90;;;18.00;59.66;99361.69;5078144;28;20405;-82
2024/04/06 00:11:30;;;;;;;18.65;8.65;;;12.70;99.90;;;17.98;59.84;99355.69;5061557;28;20454;-80
2024/04/06 00:13:58;;;;;;;19.67;8.43;;;12.70;99.90;;;17.97;59.73;99355.84;5075665;28;20114;-79
2024/04/06 00:16:24;;;;;;;17.92;9.82;;;12.60;99.90;;;17.96;59.46;99360.31;5076140;28;20130;-81
2024/04/06 00:18:53;;;;;;;19.23;9.93;;;12.60;99.90;;;17.90;59.81;99360.06;5076061;28;20048;-81
2024/04/06 00:21:21;;;;;;;16.80;7.70;;;12.60;99.90;;;17.84;59.76;99358.00;5086933;28;20090;-82
2024/04/06 00:23:48;;;;;;;25.23;10.43;;;12.60;99.90;;;17.81;59.87;99358.31;5093033;28;20048;-82
2024/04/06 00:26:15;;;;;;;21.85;10.35;;;12.60;99.90;;;17.74;60.04;99355.41;5076896;28;20553;-82
2024/04/06 00:28:43;;;;;;;29.13;11.93;;;12.50;99.90;;;17.75;60.35;99354.41;5059314;28;20059;-81
2024/04/06 00:31:09;;;;;;;22.38;10.98;;;12.50;99.90;;;17.76;60.09;99358.72;5089807;28;20135;-82
2024/04/06 00:33:37;;;;;;;23.25;12.07;;;12.50;99.90;;;17.77;60.34;99344.53;5095896;28;20085;-82
2024/04/06 00:36:04;;;;;;;24.27;12.30;;;12.50;99.90;;;17.81;60.13;99348.56;5096403;28;20122;-82
2024/04/06 00:38:33;;;;;;;31.58;14.13;;;12.50;99.90;;;17.82;60.01;99344.91;5091042;28;20071;-82
2024/04/06 00:40:59;;;;;;;25.20;13.25;;;12.50;99.90;;;17.83;60.14;99346.56;5076602;28;20048;-82
2024/04/06 00:43:28;;;;;;;28.67;15.55;;;12.50;99.90;;;17.83;60.05;99346.56;5075462;28;20075;-81
2024/04/06 00:45:56;;;;;;;29.00;12.30;;;12.50;99.90;;;17.82;60.01;99349.34;5076421;28;20099;-81
2024/04/06 00:48:24;;;;;;;21.52;10.05;;;12.40;99.90;;;17.81;60.01;99348.56;5059322;28;20044;-81
2024/04/06 00:50:54;;;;;;;23.63;9.75;;;12.30;99.90;;;17.72;60.00;99346.75;5093563;28;20040;-81
2024/04/06 00:53:22;;;;;;;21.08;10.23;;;12.30;99.90;;;17.71;60.07;99344.28;5076687;28;20458;-81
2024/04/06 00:55:50;;;;;;;20.83;10.70;;;12.30;99.90;;;17.70;59.92;99343.44;5095880;28;20043;-82
2024/04/06 00:58:19;;;;;;;25.15;11.00;;;12.30;99.90;;;17.65;60.08;99343.03;5064261;28;20083;-81
2024/04/06 01:00:46;;;;;;;21.38;10.38;;;12.30;99.90;;;17.65;60.35;99339.56;5056719;28;20083;-82
2024/04/06 01:03:13;;;;;;;20.17;10.77;;;12.20;99.90;;;17.59;60.16;99347.09;5039666;28;20052;-82
2024/04/06 01:05:40;;;;;;;18.45;9.20;;;12.20;99.90;;;17.56;60.55;99346.56;5064718;28;20113;-81
2024/04/06 01:08:08;;;;;;;20.80;10.35;;;12.20;99.90;;;17.51;60.51;99335.56;5076916;28;20087;-80
2024/04/06 01:10:34;;;;;;;22.75;10.63;;;12.20;99.90;;;17.47;60.61;99339.47;5077238;28;20128;-81
2024/04/06 01:13:04;;;;;;;22.83;10.52;;;12.10;99.90;;;17.39;60.71;99339.34;5076591;28;20044;-81
2024/04/06 01:15:34;;;;;;;26.42;12.27;;;12.10;99.90;;;17.34;60.92;99339.78;5076244;28;20047;-79
2024/04/06 01:18:02;;;;;;;30.15;15.80;;;12.00;99.90;;;17.28;61.04;99343.03;5052997;28;20102;-80
2024/04/06 01:20:29;;;;;;;27.48;12.82;;;12.00;99.90;;;17.27;60.97;99337.88;5066341;28;20089;-82
2024/04/06 01:22:56;;;;;;;36.05;13.80;;;12.00;99.90;;;17.20;61.00;99350.00;5086734;28;20036;-81
2024/04/06 01:25:24;;;;;;;26.42;12.82;;;11.90;99.90;;;17.19;60.81;99349.16;5076702;28;20072;-80
2024/04/06 01:27:51;;;;;;;24.75;11.35;;;11.90;99.90;;;17.13;60.90;99345.28;5076415;28;20147;-81
2024/04/06 01:30:18;;;;;;;26.58;12.32;;;11.90;99.90;;;17.18;61.06;99336.94;5076477;28;20430;-80
2024/04/06 01:32:48;;;;;;;27.25;12.55;;;11.90;99.90;;;17.24;60.85;99335.50;5076171;28;20082;-81
2024/04/06 01:35:14;;;;;;;29.45;13.07;;;11.90;99.90;;;17.22;60.84;99338.31;5075768;28;20048;-81
2024/04/06 01:37:42;;;;;;;23.52;12.95;;;11.90;99.90;;;17.21;61.05;99341.94;5075929;28;20051;-80
2024/04/06 01:40:09;;;;;;;21.00;10.30;;;11.80;99.90;;;17.22;60.71;99340.13;5075881;28;20047;-82
2024/04/06 01:42:38;;;;;;;25.70;12.13;;;11.80;99.90;;;17.25;60.82;99339.84;5069252;28;20064;-81
2024/04/06 01:45:06;;;;;;;28.17;13.57;;;11.80;99.90;;;17.26;60.88;99337.03;5064936;28;20538;-81
2024/04/06 01:47:33;;;;;;;24.85;12.15;;;11.80;99.90;;;17.27;60.88;99340.50;5074834;28;20771;-81
2024/04/06 01:50:03;;;;;;;24.65;11.15;;;11.80;99.90;;;17.29;60.98;99338.56;5075108;28;20524;-81
2024/04/06 01:52:30;;;;;;;20.42;11.02;;;11.80;99.90;;;17.27;60.67;99340.50;5075773;28;20078;-82
2024/04/06 01:54:59;;;;;;;23.27;11.70;;;11.80;99.90;;;17.26;60.71;99331.72;5055774;28;20072;-82
2024/04/06 01:57:27;;;;;;;24.00;12.00;;;11.80;99.90;;;17.28;60.72;99336.91;5071532;28;20098;-83
2024/04/06 01:59:55;;;;;;;25.95;12.20;;;11.80;99.90;;;17.26;60.80;99344.13;5076488;28;20075;-84
2024/04/06 02:02:23;;;;;;;21.75;11.45;;;11.70;99.90;;;17.20;60.81;99336.75;5076719;28;20191;-83
2024/04/06 02:04:49;;;;;;;24.88;11.55;;;11.70;99.90;;;17.15;60.91;99331.94;5075306;28;20127;-81
2024/04/06 02:07:17;;;;;;;25.13;11.90;;;11.60;99.90;;;17.12;60.96;99332.22;5077703;28;20071;-80
2024/04/06 02:09:44;;;;;;;23.50;12.60;;;11.60;99.90;;;17.10;60.93;99324.41;5079674;28;20071;-80
2024/04/06 02:12:12;;;;;;;28.85;12.82;;;11.60;99.90;;;17.07;60.86;99332.63;5078859;28;20397;-80
2024/04/06 02:14:38;;;;;;;21.90;11.25;;;11.60;99.90;;;17.08;60.76;99329.03;5078615;28;20126;-80
2024/04/06 02:17:07;;;;;;;24.73;12.40;;;11.60;99.90;;;17.07;60.89;99327.34;5078596;28;20505;-81
2024/04/06 02:19:34;;;;;;;27.10;13.15;;;11.50;99.90;;;17.03;60.80;99323.31;5078842;28;20047;-80
2024/04/06 02:22:01;;;;;;;20.63;9.68;;;11.50;99.90;;;17.01;60.91;99319.97;5087359;28;20048;-79
2024/04/06 02:24:28;;;;;;;26.90;10.82;;;11.50;99.90;;;16.98;60.81;99320.28;5078889;28;20524;-79
2024/04/06 02:26:56;;;;;;;21.98;11.05;;;11.50;99.90;;;16.99;60.95;99319.28;5081193;28;20076;-80
2024/04/06 02:29:24;;;;;;;24.35;10.88;;;11.50;99.90;;;16.99;60.53;99321.13;5089144;28;20075;-82
2024/04/06 02:31:52;;;;;;;20.77;11.27;;;11.40;99.90;;;16.95;60.69;99325.00;5099357;28;20061;-81
2024/04/06 02:34:21;;;;;;;22.05;10.48;;;11.40;99.90;;;16.90;60.87;99320.13;5080183;28;20145;-81
2024/04/06 02:36:47;;;;;;;21.67;11.75;;;11.30;99.90;;;16.82;60.86;99320.03;5078826;28;20040;-81
2024/04/06 02:39:15;;;;;;;24.33;11.40;;;11.30;99.90;;;16.79;61.03;99325.59;5078471;28;20122;-82
2024/04/06 02:41:41;;;;;;;23.63;12.10;;;11.20;99.90;;;16.74;61.01;99322.53;5061877;28;20466;-82
2024/04/06 02:44:09;;;;;;;22.83;11.40;;;11.20;99.90;;;16.73;60.99;99328.78;5075041;28;20123;-81
2024/04/06 02:46:35;;;;;;;21.58;10.80;;;11.20;99.90;;;16.72;60.95;99324.50;5075149;28;20457;-81
2024/04/06 02:49:03;;;;;;;21.80;10.50;;;11.20;99.90;;;16.71;61.03;99325.47;5075021;28;20055;-81
2024/04/06 02:51:31;;;;;;;24.38;10.82;;;11.20;99.90;;;16.69;61.05;99324.78;5088009;28;20127;-80
2024/04/06 02:53:59;;;;;;;19.73;10.57;;;11.20;99.90;;;16.68;61.02;99333.69;5078637;28;20039;-81
2024/04/06 02:56:26;;;;;;;23.30;12.23;;;11.10;99.90;;;16.65;60.90;99333.13;5090628;28;20102;-82
2024/04/06 02:58:54;;;;;;;23.65;12.90;;;11.10;99.90;;;16.58;61.00;99335.50;5098594;28;20075;-81
2024/04/06 03:01:22;;;;;;;27.38;11.52;;;11.10;99.90;;;16.54;61.22;99342.00;5069508;28;20129;-81
2024/04/06 03:03:50;;;;;;;22.63;12.85;;;11.10;99.90;;;16.43;61.28;99334.22;5056407;28;20131;-81
2024/04/06 03:06:16;;;;;;;27.02;13.52;;;11.00;99.90;;;16.41;61.57;99336.16;5057124;28;20454;-80
2024/04/06 03:08:45;;;;;;;22.90;13.10;;;10.90;99.90;;;16.36;61.78;99328.66;5067285;28;20494;-81
2024/04/06 03:11:12;;;;;;;29.38;13.15;;;10.90;99.90;;;16.31;61.99;99328.22;5076310;28;20686;-81
2024/04/06 03:13:39;;;;;;;23.20;14.40;;;10.90;99.90;;;16.29;61.98;99326.69;5076152;28;20584;-81
2024/04/06 03:16:07;;;;;;;26.40;13.95;;;10.90;99.90;;;16.28;62.09;99325.84;5077079;28;20116;-81
2024/04/06 03:18:34;;;;;;;27.75;14.85;;;10.90;99.90;;;16.25;62.08;99320.84;5075070;28;20503;-81
2024/04/06 03:21:01;;;;;;;26.90;15.27;;;10.90;99.90;;;16.22;62.29;99321.13;5075809;28;20143;-81
2024/04/06 03:23:28;;;;;;;26.15;15.20;;;10.90;99.90;;;16.20;62.32;99316.97;5040489;28;20044;-82
2024/04/06 03:25:57;;;;;;;25.35;13.63;;;10.80;99.90;;;16.20;62.40;99311.69;5092814;28;20076;-82
2024/04/06 03:28:24;;;;;;;25.85;13.00;;;10.80;99.90;;;16.16;62.52;99310.28;5052954;28;20054;-79
2024/04/06 03:30:51;;;;;;;31.60;14.05;;;10.80;99.90;;;16.18;62.52;99310.97;5074397;28;20078;-81
2024/04/06 03:33:18;;;;;;;37.28;15.27;;;10.80;99.90;;;16.18;62.51;99317.09;5076510;28;20513;-81
2024/04/06 03:35:45;;;;;;;23.85;14.52;;;10.80;99.90;;;16.17;62.54;99317.25;5074801;28;20079;-82
2024/04/06 03:38:12;;;;;;;28.48;14.68;;;10.80;99.90;;;16.15;62.75;99313.88;5075392;28;20075;-83
2024/04/06 03:40:40;;;;;;;27.08;14.88;;;10.80;99.90;;;16.13;62.38;99307.91;5076397;28;20067;-82
2024/04/06 03:43:09;;;;;;;39.22;16.15;;;10.80;99.90;;;16.13;62.41;99318.47;5064295;28;20084;-82
2024/04/06 03:45:35;;;;;;;31.05;15.18;;;10.80;99.90;;;16.09;62.43;99316.13;5064609;28;20139;-82
2024/04/06 03:48:04;;;;;;;30.42;15.90;;;10.70;99.90;;;16.12;62.44;99324.72;5072373;28;20086;-82
2024/04/06 03:50:31;;;;;;;29.42;15.88;;;10.80;99.90;;;16.11;62.40;99321.25;5068728;28;20505;-82
2024/04/06 03:53:00;;;;;;;30.02;15.90;;;10.70;99.90;;;16.08;62.44;99317.09;5039164;28;20402;-82
2024/04/06 03:55:26;;;;;;;29.33;15.02;;;10.70;99.90;;;16.11;62.60;99313.31;5055706;28;20044;-82
2024/04/06 03:57:54;;;;;;;31.85;15.73;;;10.70;99.90;;;16.10;62.51;99312.47;5071568;28;20052;-82
2024/04/06 04:00:23;;;;;;;26.73;15.10;;;10.70;99.90;;;16.12;62.49;99307.06;5075499;28;20080;-83
2024/04/06 04:02:50;;;;;;;28.48;15.00;;;10.70;99.90;;;16.13;62.53;99302.63;5075531;28;20405;-83
2024/04/06 04:05:17;;;;;;;28.50;14.00;;;10.70;99.90;;;16.12;62.50;99303.59;5075640;28;20051;-83
2024/04/06 04:07:44;;;;;;;26.80;13.80;;;10.70;99.90;;;16.11;62.49;99305.41;5074437;28;20143;-82
2024/04/06 04:10:12;;;;;;;28.08;13.43;;;10.70;99.90;;;16.10;62.47;99307.19;5070738;28;20078;-83
2024/04/06 04:12:38;;;;;;;29.15;16.27;;;10.70;99.90;;;16.10;62.41;99307.19;5076268;28;20051;-82
2024/04/06 04:15:07;;;;;;;25.40;14.20;;;10.70;99.90;;;16.08;62.41;99306.53;5075880;28;20071;-82
2024/04/06 04:17:35;;;;;;;31.05;15.02;;;10.70;99.90;;;16.06;62.47;99311.13;5075108;28;20135;-80
2024/04/06 04:20:04;;;;;;;29.77;14.60;;;10.70;99.90;;;16.03;62.39;99316.66;5074307;28;20165;-81
2024/04/06 04:22:31;;;;;;;26.35;14.48;;;10.60;99.90;;;16.00;62.73;99322.19;5074769;28;20398;-81
2024/04/06 04:24:58;;;;;;;25.35;14.73;;;10.60;99.90;;;16.02;62.75;99324.72;5075102;28;20482;-82
2024/04/06 04:27:26;;;;;;;26.17;14.93;;;10.70;99.90;;;16.00;62.68;99332.75;5074647;28;20119;-81
2024/04/06 04:29:53;;;;;;;29.42;15.18;;;10.60;99.90;;;15.98;62.86;99328.59;5057464;28;20078;-81
2024/04/06 04:32:20;;;;;;;28.50;15.35;;;10.60;99.90;;;15.98;62.73;99332.06;5074758;28;20081;-81
2024/04/06 04:34:49;;;;;;;31.48;15.93;;;10.60;99.90;;;16.00;62.88;99332.75;5057799;28;20052;-81
2024/04/06 04:37:16;;;;;;;22.45;13.13;;;10.60;99.90;;;16.00;62.67;99332.75;5091661;28;20048;-81
2024/04/06 04:39:43;;;;;;;24.77;13.75;;;10.70;99.90;;;16.02;62.56;99336.13;5057796;28;20048;-81
2024/04/06 04:42:10;;;;;;;28.15;15.07;;;10.60;99.90;;;16.03;62.81;99335.16;5074833;28;20040;-82
2024/04/06 04:44:38;;;;;;;24.83;13.82;;;10.60;99.90;;;16.01;62.60;99338.88;5071411;28;20052;-81
2024/04/06 04:47:04;;;;;;;26.30;15.93;;;10.60;99.90;;;16.01;62.83;99346.78;5074210;28;20040;-81
2024/04/06 04:49:33;;;;;;;23.48;13.68;;;10.60;99.90;;;15.95;62.37;99339.44;5091194;28;20069;-82
2024/04/06 04:52:01;;;;;;;24.60;14.38;;;10.60;99.90;;;15.87;62.50;99340.09;5074312;28;20071;-82
2024/04/06 04:54:29;;;;;;;25.52;14.38;;;10.50;99.90;;;15.82;62.42;99344.13;5074534;28;20044;-82
2024/04/06 04:56:55;;;;;;;23.73;13.52;;;10.50;99.90;;;15.78;62.70;99346.19;5074760;28;20143;-82
2024/04/06 04:59:24;;;;;;;28.98;14.85;;;10.50;99.90;;;15.80;62.60;99351.34;5074751;28;20071;-82
2024/04/06 05:01:51;;;;;;;24.23;14.63;;;10.50;99.90;;;15.78;62.43;99348.00;5074429;28;20048;-82
2024/04/06 05:04:18;;;;;;;27.85;15.23;;;10.40;99.90;;;15.74;62.47;99341.34;5079150;28;20075;-82
2024/04/06 05:06:45;;;;;;;32.95;15.55;;;10.40;99.90;;;15.74;62.51;99347.41;5076132;28;20126;-82
2024/04/06 05:09:15;;;;;;;30.17;17.15;;;10.50;99.90;;;15.68;62.62;99347.97;5056941;28;20071;-82
2024/04/06 05:11:42;;;;;;;28.30;15.48;;;10.40;99.90;;;15.67;62.78;99356.03;5074604;28;20107;-81
2024/04/06 05:14:10;;;;;;;28.67;14.38;;;10.40;99.90;;;15.68;62.78;99357.69;5074354;28;20040;-83
2024/04/06 05:16:36;;;;;;;25.88;14.65;;;10.40;99.90;;;15.70;62.81;99361.88;5074034;28;20048;-82
2024/04/06 05:19:05;;;;;;;27.42;14.23;;;10.50;99.90;;;15.73;62.93;99360.75;5074458;28;20048;-82
2024/04/06 05:21:32;;;;;;;26.33;15.30;;;10.50;99.90;;;15.78;62.59;99363.81;5073866;28;20078;-82
2024/04/06 05:24:00;;;;;;;24.63;14.57;;;10.50;99.90;;;15.75;62.57;99364.09;5073995;28;20074;-82
2024/04/06 05:26:28;;;;;;;24.27;15.00;;;10.60;99.90;;;15.80;62.79;99364.53;5074572;28;20501;-81
2024/04/06 05:28:55;;;;;;;28.33;15.07;;;10.60;99.90;;;15.78;62.88;99364.66;5045706;28;20078;-83
2024/04/06 05:31:22;;;;;;;25.33;15.38;;;10.70;99.90;;;15.82;62.69;99375.78;5095165;28;20041;-83
2024/04/06 05:33:49;;;;;;;24.52;15.55;;;10.70;99.90;;;15.81;62.28;99377.59;5054326;28;20124;-82
2024/04/06 05:36:16;;;;;;;30.92;15.57;;;10.70;99.90;;;15.81;63.01;99374.94;5053664;28;20106;-83
2024/04/06 05:38:44;;;;;;;28.42;14.27;;;10.80;99.90;;;15.81;62.72;99379.41;5069785;28;20269;-82
2024/04/06 05:41:11;;;;;;;32.38;13.75;;;10.80;99.90;;;15.79;62.67;99384.81;5070012;28;20090;-81
2024/04/06 05:43:40;;;;;;;23.85;13.63;;;10.90;99.90;;;15.84;62.74;99385.25;5064166;28;20051;-81
2024/04/06 05:46:06;;;;;;;27.58;15.07;;;10.90;99.90;;;15.85;62.95;99381.63;5077247;28;20048;-81
2024/04/06 05:48:34;;;;;;;22.75;13.00;;;11.00;99.90;;;15.89;63.02;99392.78;5078967;28;20060;-81
2024/04/06 05:51:01;;;;;;;32.20;14.85;;;11.00;99.90;;;15.92;63.00;99388.06;5078238;28;20093;-80
2024/04/06 05:53:28;;;;;;;26.83;13.90;;;11.10;99.90;;;15.99;63.05;99385.72;5076928;28;20127;-80
2024/04/06 05:55:56;;;;;;;25.60;13.90;;;11.20;99.90;;;16.04;62.91;99394.06;5077667;28;20044;-81
2024/04/06 05:58:22;;;;;;;28.08;14.25;;;11.20;99.90;;;16.10;63.13;99390.91;5077512;28;20164;-80
2024/04/06 06:00:51;;;;;;;25.30;13.80;;;11.30;99.90;;;16.19;62.77;99391.88;5070461;28;20168;-81
2024/04/06 06:03:19;;;;;;;23.02;15.38;;;11.30;99.90;;;16.23;62.70;99386.19;5076186;28;20051;-80
2024/04/06 06:05:46;;;;;;;31.30;15.65;;;11.40;99.90;;;16.28;62.78;99391.91;5076452;28;20040;-80
2024/04/06 06:08:13;;;;;;;29.10;14.93;;;11.40;99.90;;;16.28;62.73;99389.25;5073683;28;20124;-80
2024/04/06 06:10:41;;;;;;;23.75;14.98;;;11.50;99.90;;;16.33;62.65;99394.97;5076028;28;20075;-80
2024/04/06 06:13:07;;;;;;;24.27;15.07;;;11.60;99.90;;;16.41;62.65;99400.41;5076108;28;20119;-80
2024/04/06 06:15:35;;;;;;;28.90;17.55;;;11.70;99.90;;;16.44;62.72;99399.28;5077422;28;20363;-83
2024/04/06 06:18:04;;;;;;;30.23;16.85;;;11.80;99.90;;;16.50;62.50;99398.72;5077860;28;20047;-83
2024/04/06 06:20:32;;;;;;;32.22;17.52;;;11.80;99.90;;;16.57;62.65;99399.88;5094565;28;20677;-82
2024/04/06 06:22:58;;;;;;;24.70;15.32;;;11.90;99.90;;;16.70;62.48;99404.88;5098869;28;20047;-82
2024/04/06 06:25:26;;;;;;;25.60;17.45;;;12.10;99.90;;;16.77;62.46;99406.84;5092993;28;20048;-80
2024/04/06 06:27:52;;;;;;;27.58;16.88;;;12.10;99.90;;;16.87;62.34;99404.19;5074396;28;20044;-81
2024/04/06 06:30:20;;;;;;;29.70;17.52;;;12.10;99.90;;;16.94;62.16;99403.50;5067178;28;20036;-80
2024/04/06 06:32:47;;;;;;;32.90;19.55;;;12.20;99.90;;;17.01;62.19;99409.91;5077050;28;20746;-80
2024/04/06 06:35:16;;;;;;;25.98;17.90;;;12.40;99.90;;;17.09;62.10;99409.22;5083036;28;20056;-80
2024/04/06 06:37:42;;;;;;;26.65;17.70;;;12.40;99.90;;;17.13;62.00;99413.22;5084584;28;20095;-80
2024/04/06 06:40:10;;;;;;;29.33;16.33;;;12.50;99.90;;;17.21;61.84;99407.22;5080497;28;20127;-82
2024/04/06 06:42:37;;;;;;;27.23;14.98;;;12.70;99.90;;;17.27;61.82;99407.50;5069926;28;20053;-82
2024/04/06 06:45:06;;;;;;;28.85;15.85;;;12.80;99.90;;;17.33;61.66;99409.56;5068189;28;20041;-80
2024/04/06 06:47:33;;;;;;;28.20;15.05;;;12.80;99.90;;;17.40;61.67;99410.66;5089062;28;20521;-80
2024/04/06 06:50:01;;;;;;;23.90;14.00;;;12.90;99.90;;;17.48;61.66;99415.25;5084308;28;20088;-80
2024/04/06 06:52:30;;;;;;;25.02;15.40;;;13.10;99.90;;;17.51;61.51;99405.22;5072414;28;20078;-79
2024/04/06 06:54:57;;;;;;;32.53;14.38;;;13.00;99.90;;;17.54;61.47;99410.22;5059694;28;20075;-79
2024/04/06 06:57:24;;;;;;;25.55;13.07;;;13.10;99.90;;;17.61;61.77;99407.84;5062469;28;20135;-81
2024/04/06 06:59:52;;;;;;;27.45;14.05;;;13.30;99.90;;;17.72;61.38;99412.13;5076952;28;20123;-82
2024/04/06 07:02:19;;;;;;;28.73;14.32;;;13.50;99.90;;;17.82;61.28;99413.75;5068806;28;20040;-80
2024/04/06 07:04:46;;;;;;;28.52;14.32;;;13.60;99.90;;;17.91;61.26;99415.56;5089053;28;20128;-82
2024/04/06 07:07:13;;;;;;;28.95;12.77;;;13.70;99.90;;;17.99;61.46;99417.44;5080580;28;20041;-83
2024/04/06 07:09:43;;;;;;;29.50;12.57;;;13.80;99.90;;;18.11;61.58;99424.22;5075455;28;20059;-81
2024/04/06 07:12:09;;;;;;;24.48;13.23;;;14.10;99.90;;;18.30;61.28;99421.47;5089699;28;20079;-82
2024/04/06 07:14:37;;;;;;;27.88;13.30;;;14.30;99.90;;;18.49;60.73;99426.66;5078670;28;20083;-81
2024/04/06 07:17:04;;;;;;;26.48;13.45;;;14.60;99.90;;;18.70;60.48;99431.72;5075074;28;20207;-81
2024/04/06 07:19:31;;;;;;;22.88;13.35;;;14.70;99.90;;;18.84;60.27;99431.16;5076346;28;20454;-82
2024/04/06 07:21:58;;;;;;;32.88;14.82;;;14.80;99.90;;;18.97;60.05;99431.59;5077976;28;20434;-81
2024/04/06 07:24:25;;;;;;;29.42;13.77;;;15.00;99.90;;;19.06;60.00;99435.19;5061956;28;20131;-81
2024/04/06 07:26:53;;;;;;;26.60;10.43;;;15.00;99.90;;;19.14;59.36;99432.56;5081630;28;20040;-82
2024/04/06 07:29:21;;;;;;;25.88;9.80;;;15.10;99.90;;;19.26;59.28;99428.72;5093003;28;20087;-81
2024/04/06 07:31:47;;;;;;;18.02;7.90;;;15.30;99.90;;;19.39;58.18;99433.59;5087951;28;20075;-78
2024/04/06 07:34:15;;;;;;;15.73;7.93;;;15.40;99.90;;;19.46;57.69;99442.66;5080643;28;20079;-79
2024/04/06 07:36:41;;;;;;;22.13;8.52;;;15.40;99.90;;;19.59;56.84;99438.56;5074108;28;20521;-80
2024/04/06 07:39:09;;;;;;;21.90;9.73;;;15.50;99.90;;;19.66;56.39;99444.06;5074182;28;20512;-79
2024/04/06 07:41:35;;;;;;;19.42;8.63;;;15.40;99.90;;;19.74;56.65;99436.16;5074491;28;20075;-80
2024/04/06 07:44:05;;;;;;;19.73;8.35;;;15.70;99.90;;;19.85;56.54;99437.72;5061307;28;20402;-80
2024/04/06 07:46:32;;;;;;;19.60;9.18;;;15.80;99.90;;;19.98;56.10;99438.13;5063883;28;20048;-80
2024/04/06 07:49:00;;;;;;;21.25;9.25;;;16.00;99.90;;;20.13;55.93;99445.34;5075973;28;20058;-79
2024/04/06 07:51:27;;;;;;;22.13;8.45;;;16.20;99.90;;;20.32;55.55;99443.47;5076560;28;20075;-80
2024/04/06 07:53:54;;;;;;;19.17;8.50;;;16.40;99.90;;;20.48;55.33;99438.19;5075677;28;20321;-80
2024/04/06 07:56:21;;;;;;;20.85;8.38;;;16.60;99.90;;;20.67;55.02;99441.38;5075034;28;20131;-80
2024/04/06 07:58:49;;;;;;;19.52;7.82;;;16.80;99.90;;;20.86;54.58;99439.41;5076111;28;20083;-79
2024/04/06 08:01:17;;;;;;;19.42;8.73;;;17.00;99.90;;;21.00;54.28;99441.41;5074144;28;20115;-80
2024/04/06 08:03:45;;;;;;;24.55;8.45;;;17.10;99.90;;;21.23;53.92;99445.13;5074044;28;20067;-79
2024/04/06 08:06:12;;;;;;;18.55;8.38;;;17.40;99.90;;;21.38;53.54;99443.44;5073739;28;20397;-80
2024/04/06 08:08:40;;;;;;;23.05;8.63;;;17.50;99.90;;;21.58;53.33;99442.06;5073965;28;20548;-79
2024/04/06 08:11:06;;;;;;;18.42;8.10;;;17.70;99.90;;;21.81;52.63;99450.19;5073351;28;20447;-80
2024/04/06 08:13:34;;;;;;;24.67;8.82;;;18.00;99.90;;;22.00;51.84;99441.81;5073486;28;20383;-80
2024/04/06 08:16:00;;;;;;;25.67;8.27;;;18.20;99.10;;;22.09;51.38;99443.47;5073928;28;20127;-78
2024/04/06 08:18:29;;;;;;;18.70;7.82;;;18.10;98.40;;;22.14;51.07;99443.78;5073864;28;20062;-80
2024/04/06 08:20:56;;;;;;;25.73;7.85;;;18.00;97.80;;;22.16;50.76;99447.09;5073248;28;20062;-79
2024/04/06 08:23:23;;;;;;;17.75;6.97;;;18.10;97.90;;;22.23;50.46;99448.06;5068466;28;20128;-78
2024/04/06 08:25:53;;;;;;;17.17;7.80;;;18.10;97.00;;;22.38;50.24;99455.34;5069324;28;20100;-79
2024/04/06 08:28:21;;;;;;;20.77;7.22;;;18.20;96.80;;;22.48;49.88;99455.97;5078611;28;20040;-79
2024/04/06 08:30:48;;;;;;;18.85;6.72;;;18.30;96.50;;;22.55;49.47;99457.75;5077999;28;20079;-78
2024/04/06 08:33:15;;;;;;;20.80;6.78;;;18.30;95.50;;;22.56;49.16;99459.41;5073069;28;20462;-79
2024/04/06 08:35:43;;;;;;;17.90;6.60;;;18.40;95.10;;;22.67;49.10;99459.03;5072964;28;20060;-79
2024/04/06 08:38:12;;;;;;;21.45;7.40;;;18.70;94.40;;;22.82;48.56;99459.09;5072502;28;20507;-78
2024/04/06 08:40:41;;;;;;;16.88;6.10;;;18.90;93.40;;;22.94;47.93;99463.03;5072372;28;20050;-78
2024/04/06 08:43:13;;;;;;;19.30;5.57;;;18.90;92.20;;;23.04;47.90;99460.97;5068511;28;20485;-79
2024/04/06 08:45:39;;;;;;;21.02;6.20;;;19.10;92.20;;;23.13;47.82;99462.56;5069260;28;20506;-79
2024/04/06 08:48:09;;;;;;;21.00;6.15;;;19.10;90.70;;;23.17;47.26;99460.38;5069549;28;20040;-79
2024/04/06 08:50:37;;;;;;;15.48;5.90;;;18.90;91.00;;;23.25;46.99;99465.63;5069200;28;20139;-77
2024/04/06 08:53:07;;;;;;;19.38;6.80;;;19.20;90.40;;;23.40;46.92;99469.22;5069389;28;20565;-79
2024/04/06 08:55:34;;;;;;;15.38;5.93;;;19.40;89.70;;;23.54;47.02;99463.09;5061418;28;20588;-80
2024/04/06 08:58:01;;;;;;;17.52;6.53;;;19.40;89.70;;;23.68;46.94;99461.44;5051829;28;20498;-78
2024/04/06 09:00:28;;;;;;;18.70;6.60;;;19.70;89.80;;;23.83;46.90;99459.63;5100109;28;20115;-79
2024/04/06 09:02:56;;;;;;;17.05;6.10;;;19.80;90.00;;;23.99;46.50;99456.75;5072606;28;20047;-80
2024/04/06 09:05:22;;;;;;;24.58;5.97;;;20.00;87.60;;;24.06;45.93;99454.19;5072926;28;20056;-79
2024/04/06 09:07:53;;;;;;;17.42;5.20;;;19.90;87.50;;;24.14;45.95;99448.75;5073243;28;20469;-78
2024/04/06 09:10:27;;;;;;;20.23;7.13;;;20.00;88.10;;;24.27;45.76;99440.88;5074332;28;20047;-78
2024/04/06 09:12:54;;;;;;;16.20;5.65;;;20.20;86.50;;;24.32;45.33;99443.84;5070913;28;20048;-79
2024/04/06 09:15:21;;;;;;;21.52;6.05;;;20.10;86.20;;;24.37;44.96;99441.41;5071449;28;20056;-77
2024/04/06 09:17:49;;;;;;;16.45;5.90;;;20.20;85.30;;;24.41;44.54;99445.38;5071935;28;20076;-78
2024/04/06 09:20:17;;;;;;;17.00;5.28;;;20.40;85.20;;;24.48;43.97;99450.81;5066094;28;20115;-79
2024/04/06 09:22:45;;;;;;;18.27;4.18;;;20.30;84.70;;;24.61;44.29;99437.59;5071100;28;20106;-80
2024/04/06 09:25:13;;;;;;;15.10;4.63;;;20.60;85.60;;;24.70;44.46;99444.47;5072213;28;20534;-78
2024/04/06 09:27:45;;;;;;;14.82;5.47;;;20.60;83.80;;;24.77;43.77;99448.06;5071536;28;20063;-77
2024/04/06 09:30:12;;;;;;;;;;;20.60;82.90;;;24.67;44.61;99447.53;5055684;28;20099;-79
2024/04/06 09:32:40;;;;;;;16.27;5.13;;;20.50;83.30;;;24.84;44.03;99442.81;5069425;28;19920;-78
2024/04/06 09:35:08;;;;;;;22.35;5.90;;;20.70;83.00;;;24.88;44.24;99431.53;5070688;28;20048;-78
2024/04/06 09:37:38;;;;;;;15.90;4.20;;;20.80;83.20;;;25.05;43.47;99438.28;5072833;28;20560;-78
2024/04/06 09:40:09;;;;;;;16.98;5.40;;;21.20;82.70;;;25.23;43.47;99441.31;5070891;28;20173;-79
2024/04/06 09:42:36;;;;;;;16.63;4.65;;;21.40;81.00;;;25.30;42.72;99436.84;5066834;28;20057;-79
2024/04/06 09:45:07;;;;;;;17.98;4.32;;;21.30;80.60;;;25.45;42.87;99438.63;5060335;28;20036;-78
2024/04/06 09:47:35;;;;;;;22.70;4.57;;;21.50;80.00;;;25.54;42.16;99432.13;5052240;28;20111;-78
2024/04/06 09:50:02;;;;;;;18.85;4.15;;;21.50;79.10;;;25.66;42.15;99428.69;5070463;28;20052;-78
2024/04/06 09:52:29;;;;;;;17.30;4.88;;;21.80;79.30;;;25.80;42.10;99435.81;5067188;28;20090;-79
2024/04/06 09:54:57;;;;;;;12.90;4.40;;;21.80;78.30;;;25.86;41.78;99426.13;5068718;28;20063;-79
2024/04/06 09:57:24;;;;;;;13.80;5.03;;;21.70;77.70;;;25.87;41.07;99432.34;5073417;28;20116;-79
2024/04/06 10:00:01;;;;;;;14.82;4.10;;;21.50;77.80;;;25.78;40.45;99429.81;5068582;28;20123;-80
2024/04/06 10:02:34;;;;;;;15.50;3.92;;;21.30;77.30;;;25.73;40.38;99424.22;5057212;28;20075;-78
2024/04/06 10:05:04;;;;;;;14.50;4.30;;;21.40;77.60;;;25.75;41.38;99424.03;5060252;28;20562;-77
2024/04/06 10:07:34;;;;;;;14.37;5.20;;;21.40;78.10;;;25.74;41.07;99419.69;5071261;28;20055;-79
2024/04/06 10:10:03;;;;;;;16.30;4.95;;;21.30;78.20;;;25.65;41.29;99421.66;5082653;28;20733;-78